Elys, Kentucky
Current Conditions -  °F | °C
As of 11:20 PM on Monday 22 Dec 2014 (Local Time) from K1A6 Reporting Station
Overcast Overcast  
Wind Chill: 48°   Ceiling: 5000
Heat Index: 48°   Visibility: 10mi
Dew Point: 47°   Wind: 3mph
Humidity: 97%   Direction: 300°WNW
Pressure: 29.82"   Gusts: NA
Location:  36.7964°N, 83.7393°W
Report Text: K1A6 230420Z AUTO 30003KT 10SM SCT043 BKN050 OVC090 09/09 A2982 RMK AO2 T00900085
Loading
Personal Weather Stations






























Interactive Weather Map New forecast layout! Learn more

10-Day Weather Forecast

Advertisements
Track Severe Weather on mobile